Ana Sayfa
METAR-TAF:

METAR-TAF

Havaalanları :

Front Royal, Virginia, Amerika Birleşik Devletleri

Enlem: 38-55-03N, Boylam: 078-15-12W, yükseklik: 216 m

Güncel hava durumu gözlemi

Rapor saat 21:35 UTC de 18 dakika önce yapıldı.
Rüzgar güneydan 3 kt
Sıcaklık 13°C
Nem 28%
Basınç 1012 hPa
Görüş mesafesi: 16.1 km
11000 ft yükseklikte çok bulutlu

METAR: KFRR 242135Z AUTO 17003KT 10SM OVC110 13/M05 A2989 RMK AO1

Saat: 16:53 (21:53 UTC)


TAF: eksik

4.000'den fazla havaalanı için hava durumu gözlemleri ve tahminleri (METAR ve TAF raporları).

Kullanılabilir istasyonlar harita üzerinde sarı ve kırmızı noktalarla gösterilir.

İstasyonun adını görmek için fareyi noktanın üzerinde gezdirin.

Sonrasında hava gözlem ve tahminlerini görmek için tıklayın.

Haritayı değiştirmek için: yaklaştırmak için siyah artı işaretli yeşil düğmeye ve uzaklaştırmak için de eksi işaretli düğmeye hızla tıklayın; bitişik haritalar için yeşil okları kullanın.


METAR-TAF: